createdAt,value
2022-09-23T00:01:11.883Z,16.09
2022-09-23T00:03:48.702Z,16.09
2022-09-23T00:06:19.709Z,16.10
2022-09-23T00:08:49.185Z,16.09
2022-09-23T00:11:18.367Z,16.10
2022-09-23T00:13:48.885Z,16.10
2022-09-23T00:16:21.397Z,16.11
2022-09-23T00:18:50.435Z,16.10
2022-09-23T00:21:20.275Z,16.10
2022-09-23T00:23:47.783Z,16.08
2022-09-23T00:26:18.984Z,16.10
2022-09-23T00:28:46.561Z,16.09
2022-09-23T00:31:24.942Z,16.09
2022-09-23T00:34:01.222Z,16.08
2022-09-23T00:36:29.895Z,16.08
2022-09-23T00:38:56.961Z,16.08
2022-09-23T00:41:24.917Z,16.06
2022-09-23T00:43:58.756Z,16.07
2022-09-23T00:46:37.673Z,16.08
2022-09-23T00:49:20.813Z,16.06
2022-09-23T00:51:58.703Z,16.07
2022-09-23T00:54:27.692Z,16.08
2022-09-23T00:56:57.367Z,16.08
2022-09-23T00:59:26.115Z,16.09
2022-09-23T01:01:57.176Z,16.10
2022-09-23T01:04:27.863Z,16.10
2022-09-23T01:06:54.638Z,16.09
2022-09-23T01:09:23.642Z,16.10
2022-09-23T01:12:19.249Z,16.09
2022-09-23T01:15:12.537Z,16.06
2022-09-23T01:17:59.435Z,16.04
2022-09-23T01:21:21.945Z,16.03
2022-09-23T01:24:29.746Z,15.98
2022-09-23T01:27:14.145Z,15.96
2022-09-23T01:30:03.018Z,15.95
2022-09-23T01:33:08.166Z,15.93
2022-09-23T01:35:49.554Z,15.90
2022-09-23T01:38:35.879Z,15.90
2022-09-23T01:41:28.672Z,15.89
2022-09-23T01:44:11.488Z,15.87
2022-09-23T01:46:50.538Z,15.85
2022-09-23T01:49:43.729Z,15.85
2022-09-23T01:52:24.175Z,15.81
2022-09-23T01:55:25.936Z,15.77
2022-09-23T01:58:21.254Z,15.72
2022-09-23T02:01:05.074Z,15.67
2022-09-23T02:03:59.290Z,15.66
2022-09-23T02:06:36.075Z,15.63
2022-09-23T02:09:12.032Z,15.62
2022-09-23T02:11:45.321Z,15.61
2022-09-23T02:14:41.672Z,15.59
2022-09-23T02:17:23.222Z,15.58
2022-09-23T02:20:04.825Z,15.57
2022-09-23T02:22:44.409Z,15.56
2022-09-23T02:25:12.626Z,15.57
2022-09-23T02:28:11.484Z,15.54
2022-09-23T02:30:59.668Z,15.50
2022-09-23T02:33:58.302Z,15.47
2022-09-23T02:36:39.373Z,15.43
2022-09-23T02:39:12.483Z,15.39
2022-09-23T02:42:03.704Z,15.39
2022-09-23T02:44:32.925Z,15.33
2022-09-23T02:47:00.337Z,15.30
2022-09-23T02:49:30.730Z,15.30
2022-09-23T02:52:04.727Z,15.27
2022-09-23T02:54:34.015Z,15.22
2022-09-23T02:57:05.468Z,15.19
2022-09-23T02:59:33.957Z,15.15
2022-09-23T03:02:44.212Z,15.10
2022-09-23T03:05:24.728Z,15.03
2022-09-23T03:08:36.881Z,15.00
2022-09-23T03:11:13.440Z,14.94
2022-09-23T03:14:05.074Z,14.91
2022-09-23T03:16:47.979Z,14.87
2022-09-23T03:19:48.339Z,14.84
2022-09-23T03:22:53.547Z,14.78
2022-09-23T03:25:24.769Z,14.75
2022-09-23T03:27:57.867Z,14.74
2022-09-23T03:30:26.456Z,14.74
2022-09-23T03:32:58.947Z,14.73
2022-09-23T03:35:31.709Z,14.72
2022-09-23T03:38:07.216Z,14.71
2022-09-23T03:40:43.667Z,14.70
2022-09-23T03:43:14.399Z,14.69
2022-09-23T03:45:42.519Z,14.65
2022-09-23T03:48:09.480Z,14.63
2022-09-23T03:50:36.335Z,14.61
2022-09-23T03:53:03.217Z,14.61
2022-09-23T03:55:29.978Z,14.58
2022-09-23T03:57:56.816Z,14.56
2022-09-23T04:00:23.662Z,14.57
2022-09-23T04:02:50.411Z,14.55
2022-09-23T04:05:18.154Z,14.54
2022-09-23T04:07:45.680Z,14.55
2022-09-23T04:10:12.969Z,14.52
2022-09-23T04:12:39.793Z,14.52
2022-09-23T04:15:07.408Z,14.51
2022-09-23T04:17:34.245Z,14.51
2022-09-23T04:20:01.187Z,14.50
2022-09-23T04:22:28.443Z,14.49
2022-09-23T04:24:55.173Z,14.48
2022-09-23T04:27:22.010Z,14.46
2022-09-23T04:29:48.913Z,14.44
2022-09-23T04:32:15.672Z,14.39
2022-09-23T04:34:43.164Z,14.34
2022-09-23T04:37:09.969Z,14.35
2022-09-23T04:39:36.701Z,14.35
2022-09-23T04:42:04.250Z,14.32
2022-09-23T04:44:31.094Z,14.33
2022-09-23T04:46:58.434Z,14.33
2022-09-23T04:49:26.189Z,14.32
2022-09-23T04:51:53.089Z,14.32
2022-09-23T04:54:20.006Z,14.34
2022-09-23T04:56:46.869Z,14.31
2022-09-23T04:59:13.776Z,14.32
2022-09-23T05:01:41.553Z,14.31
2022-09-23T05:04:14.122Z,14.30
2022-09-23T05:06:43.941Z,14.30
2022-09-23T05:09:17.242Z,14.30
2022-09-23T05:11:45.571Z,14.30
2022-09-23T05:14:12.956Z,14.30
2022-09-23T05:16:40.478Z,14.29
2022-09-23T05:19:07.472Z,14.28
2022-09-23T05:21:35.132Z,14.28
2022-09-23T05:24:02.414Z,14.28
2022-09-23T05:26:32.409Z,14.28
2022-09-23T05:29:00.195Z,14.27
2022-09-23T05:31:29.888Z,14.30
2022-09-23T05:34:06.166Z,14.29
2022-09-23T05:36:38.587Z,14.31
2022-09-23T05:39:08.231Z,14.31
2022-09-23T05:41:36.019Z,14.31
2022-09-23T05:44:02.956Z,14.35
2022-09-23T05:46:31.727Z,14.38
2022-09-23T05:49:03.728Z,14.41
2022-09-23T05:51:34.682Z,14.45
2022-09-23T05:54:04.134Z,14.52
2022-09-23T05:56:33.466Z,14.58
2022-09-23T05:59:02.190Z,14.66
2022-09-23T06:01:33.723Z,14.75
2022-09-23T06:04:03.941Z,14.85
2022-09-23T06:06:38.185Z,14.97
2022-09-23T06:09:07.069Z,15.13
2022-09-23T06:11:35.827Z,15.28
2022-09-23T06:14:03.478Z,15.46
2022-09-23T06:16:34.594Z,15.65
2022-09-23T06:19:06.249Z,15.89
2022-09-23T06:21:36.789Z,16.17
2022-09-23T06:24:03.999Z,16.47
2022-09-23T06:26:33.757Z,16.83
2022-09-23T06:29:02.736Z,17.25
2022-09-23T06:31:29.906Z,17.69
2022-09-23T06:34:08.246Z,18.16
2022-09-23T06:36:43.105Z,18.74
2022-09-23T06:39:11.070Z,19.40
2022-09-23T06:41:39.130Z,20.13
2022-09-23T06:44:06.083Z,20.81
2022-09-23T06:46:33.125Z,21.42
2022-09-23T06:49:00.490Z,22.02
2022-09-23T06:51:27.185Z,22.70
2022-09-23T06:53:54.019Z,23.37
2022-09-23T06:56:22.056Z,24.00
2022-09-23T06:58:51.768Z,24.48
2022-09-23T07:01:19.759Z,24.91
2022-09-23T07:03:48.265Z,25.17
2022-09-23T07:06:15.798Z,25.42
2022-09-23T07:08:46.830Z,25.61
2022-09-23T07:11:14.724Z,25.75
2022-09-23T07:13:42.985Z,25.88
2022-09-23T07:16:11.495Z,26.02
2022-09-23T07:18:39.437Z,26.08
2022-09-23T07:21:15.083Z,26.13
2022-09-23T07:23:43.710Z,26.18
2022-09-23T07:26:10.529Z,26.24
2022-09-23T07:28:38.271Z,26.31
2022-09-23T07:31:08.507Z,26.39
2022-09-23T07:33:42.027Z,26.49
2022-09-23T07:36:13.280Z,26.53
2022-09-23T07:38:44.979Z,26.52
2022-09-23T07:41:16.849Z,26.49
2022-09-23T07:43:45.218Z,26.39
2022-09-23T07:46:16.814Z,26.28
2022-09-23T07:48:45.796Z,26.17
2022-09-23T07:51:39.997Z,26.09
2022-09-23T07:54:13.142Z,26.19
2022-09-23T07:56:41.816Z,26.32
2022-09-23T07:59:15.273Z,26.59
2022-09-23T08:01:50.522Z,26.84
2022-09-23T08:04:30.602Z,27.14
2022-09-23T08:07:01.607Z,27.39
2022-09-23T08:09:39.336Z,27.50
2022-09-23T08:12:06.229Z,27.58
2022-09-23T08:14:33.052Z,27.67
2022-09-23T08:16:59.820Z,27.79
2022-09-23T08:19:26.677Z,27.91
2022-09-23T08:21:54.365Z,28.03
2022-09-23T08:24:24.146Z,28.15
2022-09-23T08:26:53.356Z,28.32
2022-09-23T08:29:23.501Z,28.50
2022-09-23T08:31:50.915Z,28.66
2022-09-23T08:34:21.902Z,28.86
2022-09-23T08:36:49.206Z,29.07
2022-09-23T08:39:20.251Z,29.32
2022-09-23T08:41:57.504Z,29.50
2022-09-23T08:44:34.328Z,29.73
2022-09-23T08:47:21.992Z,29.90
2022-09-23T08:50:00.262Z,30.05
2022-09-23T08:52:58.682Z,30.15
2022-09-23T08:55:41.948Z,30.31
2022-09-23T08:58:55.242Z,30.49
2022-09-23T09:01:46.303Z,30.60
2022-09-23T09:04:28.503Z,30.68
2022-09-23T09:07:37.636Z,30.69
2022-09-23T09:10:22.376Z,30.80
2022-09-23T09:13:16.948Z,31.00
2022-09-23T09:16:42.082Z,31.23
2022-09-23T09:19:53.406Z,31.48
2022-09-23T09:22:37.468Z,31.64
2022-09-23T09:25:25.107Z,31.66
2022-09-23T09:27:54.889Z,31.67
2022-09-23T09:30:22.234Z,31.63
2022-09-23T09:33:01.955Z,31.59
2022-09-23T09:35:50.390Z,31.54
2022-09-23T09:38:17.116Z,31.49
2022-09-23T09:40:48.020Z,31.41
2022-09-23T09:43:23.145Z,31.30
2022-09-23T09:46:52.770Z,31.13
2022-09-23T09:49:51.644Z,30.98
2022-09-23T09:52:29.645Z,30.91
2022-09-23T09:55:24.821Z,30.77
2022-09-23T09:58:05.779Z,30.73
2022-09-23T10:00:44.180Z,30.66
2022-09-23T10:03:13.784Z,30.62
2022-09-23T10:05:46.654Z,30.65
2022-09-23T10:08:27.323Z,30.66
2022-09-23T10:11:01.428Z,30.75
2022-09-23T10:13:30.127Z,30.89
2022-09-23T10:16:00.346Z,31.09
2022-09-23T10:18:50.232Z,31.33
2022-09-23T10:21:27.570Z,31.65
2022-09-23T10:23:58.571Z,31.97
2022-09-23T10:26:51.290Z,32.29
2022-09-23T10:29:50.905Z,32.64
2022-09-23T10:32:27.451Z,32.96
2022-09-23T10:35:11.757Z,33.14
2022-09-23T10:37:49.690Z,33.21
2022-09-23T10:40:51.490Z,33.20
2022-09-23T10:43:55.567Z,33.11
2022-09-23T10:46:45.883Z,32.85
2022-09-23T10:49:37.397Z,32.61
2022-09-23T10:52:20.421Z,32.44
2022-09-23T10:55:02.017Z,32.24
2022-09-23T10:57:56.690Z,32.02
2022-09-23T11:00:34.593Z,31.86
2022-09-23T11:03:09.241Z,31.70
2022-09-23T11:06:04.361Z,31.52
2022-09-23T11:08:59.176Z,31.27
2022-09-23T11:11:51.832Z,31.08
2022-09-23T11:14:50.509Z,30.91
2022-09-23T11:17:58.359Z,30.73
2022-09-23T11:20:37.018Z,30.62
2022-09-23T11:23:32.084Z,30.51
2022-09-23T11:26:32.764Z,30.42
2022-09-23T11:29:17.319Z,30.35
2022-09-23T11:32:27.509Z,30.25
2022-09-23T11:35:19.420Z,30.23
2022-09-23T11:37:58.160Z,30.30
2022-09-23T11:40:33.038Z,30.41
2022-09-23T11:43:14.081Z,30.54
2022-09-23T11:45:51.548Z,30.68
2022-09-23T11:48:36.678Z,30.79
2022-09-23T11:51:31.550Z,30.95
2022-09-23T11:54:05.879Z,31.13
2022-09-23T11:56:44.883Z,31.24
2022-09-23T11:59:40.893Z,31.28
2022-09-23T12:02:31.347Z,31.25
2022-09-23T12:05:22.442Z,31.15
2022-09-23T12:08:02.790Z,31.08
2022-09-23T12:10:48.760Z,30.97
2022-09-23T12:13:40.576Z,30.88
2022-09-23T12:16:32.162Z,30.79
2022-09-23T12:19:22.853Z,30.67
2022-09-23T12:22:29.154Z,30.50
2022-09-23T12:25:33.310Z,30.36
2022-09-23T12:28:24.523Z,30.19
2022-09-23T12:30:56.299Z,30.04
2022-09-23T12:33:30.203Z,29.90
2022-09-23T12:36:08.824Z,29.75
2022-09-23T12:38:49.998Z,29.66
2022-09-23T12:41:38.019Z,29.50
2022-09-23T12:44:08.290Z,29.43
2022-09-23T12:46:35.042Z,29.35
2022-09-23T12:49:05.537Z,29.29
2022-09-23T12:51:36.851Z,29.17
2022-09-23T12:54:03.609Z,29.06
2022-09-23T12:56:33.077Z,28.92
2022-09-23T12:59:17.624Z,28.74
2022-09-23T13:01:44.813Z,28.59
2022-09-23T13:05:10.401Z,28.32
2022-09-23T13:07:47.058Z,28.09
2022-09-23T13:10:32.702Z,27.88
2022-09-23T13:13:02.342Z,27.71
2022-09-23T13:15:33.890Z,27.57
2022-09-23T13:18:20.827Z,27.40
2022-09-23T13:20:52.546Z,27.27
2022-09-23T13:23:24.785Z,27.15
2022-09-23T13:25:57.184Z,27.05
2022-09-23T13:28:55.752Z,26.91
2022-09-23T13:31:22.828Z,26.85
2022-09-23T13:34:00.551Z,26.80
2022-09-23T13:36:27.358Z,26.77
2022-09-23T13:39:14.833Z,26.74
2022-09-23T13:41:45.811Z,26.72
2022-09-23T13:44:21.568Z,26.70
2022-09-23T13:47:02.165Z,26.70
2022-09-23T13:49:36.195Z,26.68
2022-09-23T13:52:03.641Z,26.64
2022-09-23T13:54:46.649Z,26.63
2022-09-23T13:57:33.945Z,26.56
2022-09-23T14:00:22.275Z,26.49
2022-09-23T14:02:49.022Z,26.47
2022-09-23T14:05:25.247Z,26.43
2022-09-23T14:07:55.604Z,26.38
2022-09-23T14:10:25.749Z,26.30
2022-09-23T14:12:55.671Z,26.24
2022-09-23T14:15:23.018Z,26.19
2022-09-23T14:18:01.764Z,26.14
2022-09-23T14:20:28.842Z,26.09
2022-09-23T14:23:14.723Z,26.03
2022-09-23T14:25:47.023Z,25.98
2022-09-23T14:28:22.869Z,25.93
2022-09-23T14:30:54.069Z,25.87
2022-09-23T14:33:32.692Z,25.82
2022-09-23T14:36:34.303Z,25.77
2022-09-23T14:39:12.289Z,25.67
2022-09-23T14:41:44.255Z,25.62
2022-09-23T14:44:25.624Z,25.55
2022-09-23T14:46:58.061Z,25.50
2022-09-23T14:49:26.517Z,25.44
2022-09-23T14:51:57.511Z,25.37
2022-09-23T14:54:45.602Z,25.29
2022-09-23T14:57:31.256Z,25.21
2022-09-23T15:00:07.961Z,25.14
2022-09-23T15:02:37.927Z,25.10
2022-09-23T15:05:20.562Z,25.06
2022-09-23T15:07:55.211Z,24.98
2022-09-23T15:10:37.454Z,24.94
2022-09-23T15:13:13.430Z,24.89
2022-09-23T15:15:42.558Z,24.84
2022-09-23T15:18:31.387Z,24.78
2022-09-23T15:21:10.882Z,24.69
2022-09-23T15:23:52.167Z,24.61
2022-09-23T15:26:24.446Z,24.56
2022-09-23T15:28:55.982Z,24.49
2022-09-23T15:31:27.370Z,24.42
2022-09-23T15:33:55.875Z,24.32
2022-09-23T15:36:28.304Z,24.28
2022-09-23T15:38:57.314Z,24.22
2022-09-23T15:41:24.382Z,24.17
2022-09-23T15:43:51.562Z,24.10
2022-09-23T15:46:25.256Z,24.06
2022-09-23T15:49:01.927Z,23.99
2022-09-23T15:51:29.063Z,23.93
2022-09-23T15:53:56.390Z,23.89
2022-09-23T15:56:24.397Z,23.83
2022-09-23T15:58:51.367Z,23.80
2022-09-23T16:01:28.542Z,23.75
2022-09-23T16:03:55.700Z,23.68
2022-09-23T16:06:24.351Z,23.64
2022-09-23T16:08:52.201Z,23.57
2022-09-23T16:11:24.320Z,23.52
2022-09-23T16:13:51.652Z,23.46
2022-09-23T16:16:22.793Z,23.39
2022-09-23T16:18:53.387Z,23.32
2022-09-23T16:21:28.446Z,23.25
2022-09-23T16:23:57.242Z,23.19
2022-09-23T16:26:29.546Z,23.14
2022-09-23T16:28:58.563Z,23.05
2022-09-23T16:31:26.732Z,23.40
2022-09-23T16:33:54.306Z,23.21
2022-09-23T16:36:27.209Z,23.05
2022-09-23T16:38:55.698Z,22.95
2022-09-23T16:41:26.714Z,22.86
2022-09-23T16:43:53.871Z,22.77
2022-09-23T16:46:27.393Z,22.71
2022-09-23T16:48:56.477Z,22.63
2022-09-23T16:51:38.636Z,22.57
2022-09-23T16:54:12.098Z,22.50
2022-09-23T16:56:45.570Z,22.44
2022-09-23T16:59:16.934Z,22.37
2022-09-23T17:02:02.681Z,22.31
2022-09-23T17:04:29.703Z,22.24
2022-09-23T17:06:59.460Z,22.18
2022-09-23T17:09:29.425Z,22.14
2022-09-23T17:12:15.299Z,22.07
2022-09-23T17:14:42.555Z,22.00
2022-09-23T17:17:09.506Z,21.96
2022-09-23T17:19:38.209Z,21.90
2022-09-23T17:22:05.113Z,21.83
2022-09-23T17:24:32.018Z,21.77
2022-09-23T17:26:58.713Z,22.15
2022-09-23T17:29:27.016Z,21.97
2022-09-23T17:31:54.747Z,21.79
2022-09-23T17:34:22.257Z,21.68
2022-09-23T17:36:49.869Z,21.60
2022-09-23T17:39:18.083Z,21.51
2022-09-23T17:41:48.261Z,21.45
2022-09-23T17:44:17.791Z,21.38
2022-09-23T17:46:52.546Z,21.33
2022-09-23T17:49:19.463Z,21.27
2022-09-23T17:51:47.067Z,21.20
2022-09-23T17:54:15.181Z,21.16
2022-09-23T17:56:45.345Z,21.10
2022-09-23T17:59:12.712Z,21.07
2022-09-23T18:01:44.035Z,21.02
2022-09-23T18:04:10.840Z,20.97
2022-09-23T18:06:38.597Z,20.88
2022-09-23T18:09:08.527Z,20.88
2022-09-23T18:11:43.513Z,20.83
2022-09-23T18:14:20.965Z,20.75
2022-09-23T18:16:53.599Z,20.74
2022-09-23T18:19:23.180Z,20.70
2022-09-23T18:21:54.570Z,20.66
2022-09-23T18:24:37.700Z,20.63
2022-09-23T18:27:06.416Z,20.58
2022-09-23T18:29:34.540Z,20.55
2022-09-23T18:32:02.445Z,20.52
2022-09-23T18:34:29.567Z,20.49
2022-09-23T18:36:56.323Z,20.47
2022-09-23T18:39:23.129Z,20.46
2022-09-23T18:41:50.301Z,20.43
2022-09-23T18:44:17.758Z,20.41
2022-09-23T18:46:44.762Z,20.39
2022-09-23T18:49:30.205Z,20.37
2022-09-23T18:51:58.416Z,20.33
2022-09-23T18:54:39.429Z,20.34
2022-09-23T18:57:06.362Z,20.30
2022-09-23T18:59:33.402Z,20.29
2022-09-23T19:02:00.463Z,20.26
2022-09-23T19:04:27.956Z,20.28
2022-09-23T19:06:56.683Z,20.23
2022-09-23T19:09:24.022Z,20.22
2022-09-23T19:11:52.491Z,20.19
2022-09-23T19:14:19.600Z,20.18
2022-09-23T19:16:51.190Z,20.15
2022-09-23T19:19:17.905Z,20.11
2022-09-23T19:21:44.882Z,20.08
2022-09-23T19:24:15.585Z,20.07
2022-09-23T19:26:43.434Z,20.02
2022-09-23T19:29:16.406Z,20.00
2022-09-23T19:31:43.878Z,19.97
2022-09-23T19:34:39.121Z,19.92
2022-09-23T19:37:06.654Z,19.88
2022-09-23T19:39:34.729Z,19.86
2022-09-23T19:42:01.757Z,19.84
2022-09-23T19:44:28.518Z,19.80
2022-09-23T19:46:57.253Z,19.80
2022-09-23T19:49:25.637Z,19.77
2022-09-23T19:51:55.513Z,19.75
2022-09-23T19:54:26.660Z,19.73
2022-09-23T19:56:53.423Z,19.68
2022-09-23T19:59:20.265Z,19.64
2022-09-23T20:01:48.264Z,19.64
2022-09-23T20:04:16.663Z,19.58
2022-09-23T20:06:43.985Z,19.56
2022-09-23T20:09:10.750Z,19.52
2022-09-23T20:11:37.948Z,19.49
2022-09-23T20:14:06.099Z,19.47
2022-09-23T20:16:36.845Z,19.45
2022-09-23T20:19:05.672Z,19.40
2022-09-23T20:21:33.762Z,19.36
2022-09-23T20:24:01.159Z,19.34
2022-09-23T20:26:46.624Z,19.31
2022-09-23T20:29:13.440Z,19.26
2022-09-23T20:31:41.056Z,19.23
2022-09-23T20:34:10.786Z,19.21
2022-09-23T20:36:41.048Z,19.18
2022-09-23T20:39:09.841Z,19.15
2022-09-23T20:41:39.174Z,19.14
2022-09-23T20:44:13.837Z,19.13
2022-09-23T20:46:47.801Z,19.09
2022-09-23T20:49:17.387Z,19.07
2022-09-23T20:51:44.835Z,19.06
2022-09-23T20:54:12.239Z,19.03
2022-09-23T20:56:39.224Z,19.03
2022-09-23T20:59:06.134Z,19.01
2022-09-23T21:01:35.190Z,18.99
2022-09-23T21:04:04.866Z,18.98
2022-09-23T21:06:34.423Z,18.99
2022-09-23T21:09:01.583Z,18.99
2022-09-23T21:11:29.207Z,18.99
2022-09-23T21:13:56.461Z,18.99
2022-09-23T21:16:23.932Z,18.98
2022-09-23T21:18:51.726Z,18.98
2022-09-23T21:21:21.994Z,18.98
2022-09-23T21:23:49.862Z,18.98
2022-09-23T21:26:23.273Z,18.97
2022-09-23T21:28:54.665Z,18.96
2022-09-23T21:31:28.124Z,18.93
2022-09-23T21:34:08.025Z,18.92
2022-09-23T21:36:38.492Z,18.90
2022-09-23T21:39:07.742Z,18.90
2022-09-23T21:41:34.890Z,18.88
2022-09-23T21:44:04.363Z,18.88
2022-09-23T21:46:35.462Z,18.87
2022-09-23T21:49:03.824Z,18.86
2022-09-23T21:51:40.164Z,18.86
2022-09-23T21:54:15.668Z,18.85
2022-09-23T21:56:44.078Z,18.85
2022-09-23T21:59:10.944Z,18.83
2022-09-23T22:01:44.293Z,18.82
2022-09-23T22:04:18.187Z,18.83
2022-09-23T22:06:46.161Z,18.83
2022-09-23T22:09:18.570Z,18.82
2022-09-23T22:12:05.119Z,18.79
2022-09-23T22:14:32.213Z,18.76
2022-09-23T22:17:02.522Z,18.74
2022-09-23T22:19:35.783Z,18.72
2022-09-23T22:22:08.494Z,18.68
2022-09-23T22:24:35.240Z,18.66
2022-09-23T22:27:01.977Z,18.62
2022-09-23T22:29:47.502Z,18.61
2022-09-23T22:32:33.339Z,18.54
2022-09-23T22:35:00.079Z,18.52
2022-09-23T22:37:36.288Z,18.52
2022-09-23T22:40:09.475Z,18.50
2022-09-23T22:42:37.425Z,18.47
2022-09-23T22:45:05.702Z,18.46
2022-09-23T22:47:37.823Z,18.44
2022-09-23T22:50:07.919Z,18.43
2022-09-23T22:52:36.011Z,18.39
2022-09-23T22:55:03.741Z,18.38
2022-09-23T22:57:31.291Z,18.36
2022-09-23T22:59:58.234Z,18.33
2022-09-23T23:02:25.100Z,18.31
2022-09-23T23:04:51.926Z,18.30
2022-09-23T23:07:21.772Z,18.29
2022-09-23T23:09:52.330Z,18.27
2022-09-23T23:12:20.743Z,18.25
2022-09-23T23:14:49.466Z,18.22
2022-09-23T23:17:17.539Z,18.19
2022-09-23T23:19:44.529Z,18.16
2022-09-23T23:22:11.358Z,18.15
2022-09-23T23:24:38.201Z,18.13
2022-09-23T23:27:04.948Z,18.10
2022-09-23T23:29:31.869Z,18.10
2022-09-23T23:31:58.629Z,18.08
2022-09-23T23:34:25.358Z,18.06
2022-09-23T23:36:56.556Z,18.05
2022-09-23T23:39:25.080Z,18.04
2022-09-23T23:41:57.485Z,18.01
2022-09-23T23:44:26.283Z,17.99
2022-09-23T23:46:54.175Z,17.99
2022-09-23T23:49:21.635Z,17.98
2022-09-23T23:51:48.453Z,17.99
2022-09-23T23:54:15.662Z,18.00
2022-09-23T23:56:42.937Z,18.00
2022-09-23T23:59:09.728Z,18.02
